Isle Au Haut, Maine
Current Conditions -  °F | °C
As of 5:55 PM on Tuesday 21 Oct 2014 (Local Time) from KRKD Reporting Station
Overcast Overcast  
Wind Chill: 55°   Ceiling: 800
Heat Index: 55°   Visibility: 10mi
Dew Point: 54°   Wind: 12mph
Humidity: 94%   Direction: 90°E
Pressure: 30.03"   Gusts: NA
Location:  44.07°N, 68.63°W
Report Text: KRKD 212155Z AUTO 09010KT 10SM OVC008 13/12 A3003 RMK AO1 P0007
Loading
Personal Weather Stations






























Interactive Weather Map New forecast layout! Learn more

10-Day Weather Forecast

Advertisements
Track Severe Weather on mobile